sensor_id;sensor_type;location;lat;lon;timestamp;P1;durP1;ratioP1;P2;durP2;ratioP2
48317;SDS011;34127;47.412;9.730;2023-07-29T00:01:30;11.10;;;6.47;;
48317;SDS011;34127;47.412;9.730;2023-07-29T00:03:57;9.88;;;6.35;;
48317;SDS011;34127;47.412;9.730;2023-07-29T00:06:23;8.48;;;5.88;;
48317;SDS011;34127;47.412;9.730;2023-07-29T00:08:49;8.65;;;5.80;;
48317;SDS011;34127;47.412;9.730;2023-07-29T00:11:16;9.07;;;5.38;;
48317;SDS011;34127;47.412;9.730;2023-07-29T00:13:42;10.45;;;5.78;;
48317;SDS011;34127;47.412;9.730;2023-07-29T00:16:09;9.65;;;6.10;;
48317;SDS011;34127;47.412;9.730;2023-07-29T00:18:37;9.80;;;6.13;;
48317;SDS011;34127;47.412;9.730;2023-07-29T00:21:03;10.02;;;5.50;;
48317;SDS011;34127;47.412;9.730;2023-07-29T00:23:29;9.38;;;5.97;;
48317;SDS011;34127;47.412;9.730;2023-07-29T00:25:55;8.15;;;5.88;;
48317;SDS011;34127;47.412;9.730;2023-07-29T00:28:22;8.95;;;5.65;;
48317;SDS011;34127;47.412;9.730;2023-07-29T00:30:48;8.48;;;5.50;;
48317;SDS011;34127;47.412;9.730;2023-07-29T00:33:14;8.10;;;6.07;;
48317;SDS011;34127;47.412;9.730;2023-07-29T00:35:40;10.73;;;4.97;;
48317;SDS011;34127;47.412;9.730;2023-07-29T00:38:06;7.93;;;5.65;;
48317;SDS011;34127;47.412;9.730;2023-07-29T00:40:33;8.43;;;5.70;;
48317;SDS011;34127;47.412;9.730;2023-07-29T00:43:01;8.23;;;5.38;;
48317;SDS011;34127;47.412;9.730;2023-07-29T00:45:27;9.13;;;5.07;;
48317;SDS011;34127;47.412;9.730;2023-07-29T00:47:55;8.13;;;5.10;;
48317;SDS011;34127;47.412;9.730;2023-07-29T00:50:22;8.80;;;5.30;;
48317;SDS011;34127;47.412;9.730;2023-07-29T00:52:50;7.57;;;5.60;;
48317;SDS011;34127;47.412;9.730;2023-07-29T00:55:16;8.50;;;5.60;;
48317;SDS011;34127;47.412;9.730;2023-07-29T00:57:43;9.10;;;5.15;;
48317;SDS011;34127;47.412;9.730;2023-07-29T01:00:13;7.70;;;5.30;;
48317;SDS011;34127;47.412;9.730;2023-07-29T01:02:39;6.95;;;5.20;;
48317;SDS011;34127;47.412;9.730;2023-07-29T01:05:05;7.88;;;5.10;;
48317;SDS011;34127;47.412;9.730;2023-07-29T01:13:01;8.60;;;5.30;;
48317;SDS011;34127;47.412;9.730;2023-07-29T01:18:02;9.98;;;5.80;;
48317;SDS011;34127;47.412;9.730;2023-07-29T01:20:30;8.15;;;5.75;;
48317;SDS011;34127;47.412;9.730;2023-07-29T01:22:57;11.38;;;6.18;;
48317;SDS011;34127;47.412;9.730;2023-07-29T01:25:24;10.00;;;6.53;;
48317;SDS011;34127;47.412;9.730;2023-07-29T01:27:50;9.25;;;6.47;;
48317;SDS011;34127;47.412;9.730;2023-07-29T01:30:17;10.48;;;6.55;;
48317;SDS011;34127;47.412;9.730;2023-07-29T01:35:13;10.15;;;7.03;;
48317;SDS011;34127;47.412;9.730;2023-07-29T01:37:41;11.60;;;7.40;;
48317;SDS011;34127;47.412;9.730;2023-07-29T01:40:10;10.48;;;7.00;;
48317;SDS011;34127;47.412;9.730;2023-07-29T01:42:37;11.27;;;7.22;;
48317;SDS011;34127;47.412;9.730;2023-07-29T01:45:03;8.38;;;6.20;;
48317;SDS011;34127;47.412;9.730;2023-07-29T01:47:30;11.07;;;6.90;;
48317;SDS011;34127;47.412;9.730;2023-07-29T01:49:56;9.02;;;6.45;;
48317;SDS011;34127;47.412;9.730;2023-07-29T01:52:22;9.60;;;6.05;;
48317;SDS011;34127;47.412;9.730;2023-07-29T01:54:48;11.15;;;6.20;;
48317;SDS011;34127;47.412;9.730;2023-07-29T01:57:14;9.77;;;6.18;;
48317;SDS011;34127;47.412;9.730;2023-07-29T01:59:41;10.10;;;6.15;;
48317;SDS011;34127;47.412;9.730;2023-07-29T02:02:07;10.35;;;6.25;;
48317;SDS011;34127;47.412;9.730;2023-07-29T02:04:33;8.73;;;5.93;;
48317;SDS011;34127;47.412;9.730;2023-07-29T02:06:59;9.00;;;5.82;;
48317;SDS011;34127;47.412;9.730;2023-07-29T02:09:25;8.95;;;6.28;;
48317;SDS011;34127;47.412;9.730;2023-07-29T02:11:52;9.18;;;6.55;;
48317;SDS011;34127;47.412;9.730;2023-07-29T02:14:18;8.90;;;6.43;;
48317;SDS011;34127;47.412;9.730;2023-07-29T02:16:44;11.07;;;6.43;;
48317;SDS011;34127;47.412;9.730;2023-07-29T02:19:10;12.63;;;6.78;;
48317;SDS011;34127;47.412;9.730;2023-07-29T02:21:37;12.60;;;6.68;;
48317;SDS011;34127;47.412;9.730;2023-07-29T02:24:03;9.35;;;6.80;;
48317;SDS011;34127;47.412;9.730;2023-07-29T02:26:29;9.38;;;6.38;;
48317;SDS011;34127;47.412;9.730;2023-07-29T02:28:56;10.05;;;6.53;;
48317;SDS011;34127;47.412;9.730;2023-07-29T02:31:22;13.82;;;6.50;;
48317;SDS011;34127;47.412;9.730;2023-07-29T02:33:49;11.50;;;6.63;;
48317;SDS011;34127;47.412;9.730;2023-07-29T02:36:15;11.07;;;6.43;;
48317;SDS011;34127;47.412;9.730;2023-07-29T02:38:42;8.35;;;6.03;;
48317;SDS011;34127;47.412;9.730;2023-07-29T02:41:08;11.32;;;6.13;;
48317;SDS011;34127;47.412;9.730;2023-07-29T02:43:37;8.85;;;6.32;;
48317;SDS011;34127;47.412;9.730;2023-07-29T02:46:03;8.77;;;6.68;;
48317;SDS011;34127;47.412;9.730;2023-07-29T02:48:30;8.85;;;6.28;;
48317;SDS011;34127;47.412;9.730;2023-07-29T02:50:56;8.40;;;6.05;;
48317;SDS011;34127;47.412;9.730;2023-07-29T02:53:22;10.80;;;6.35;;
48317;SDS011;34127;47.412;9.730;2023-07-29T02:55:48;8.45;;;6.28;;
48317;SDS011;34127;47.412;9.730;2023-07-29T02:58:15;9.10;;;6.18;;
48317;SDS011;34127;47.412;9.730;2023-07-29T03:00:41;9.20;;;6.25;;
48317;SDS011;34127;47.412;9.730;2023-07-29T03:03:08;11.05;;;7.20;;
48317;SDS011;34127;47.412;9.730;2023-07-29T03:05:34;10.77;;;6.53;;
48317;SDS011;34127;47.412;9.730;2023-07-29T03:08:00;11.73;;;6.30;;
48317;SDS011;34127;47.412;9.730;2023-07-29T03:10:26;12.55;;;7.57;;
48317;SDS011;34127;47.412;9.730;2023-07-29T03:12:53;9.35;;;6.40;;
48317;SDS011;34127;47.412;9.730;2023-07-29T03:15:23;9.85;;;6.53;;
48317;SDS011;34127;47.412;9.730;2023-07-29T03:17:50;9.90;;;5.80;;
48317;SDS011;34127;47.412;9.730;2023-07-29T03:20:16;9.43;;;6.25;;
48317;SDS011;34127;47.412;9.730;2023-07-29T03:22:45;10.63;;;6.38;;
48317;SDS011;34127;47.412;9.730;2023-07-29T03:25:11;11.32;;;6.38;;
48317;SDS011;34127;47.412;9.730;2023-07-29T03:27:38;11.75;;;6.07;;
48317;SDS011;34127;47.412;9.730;2023-07-29T03:30:05;8.65;;;5.90;;
48317;SDS011;34127;47.412;9.730;2023-07-29T03:32:32;9.73;;;6.75;;
48317;SDS011;34127;47.412;9.730;2023-07-29T03:34:58;9.07;;;6.18;;
48317;SDS011;34127;47.412;9.730;2023-07-29T03:37:24;8.00;;;5.88;;
48317;SDS011;34127;47.412;9.730;2023-07-29T03:39:50;10.50;;;6.30;;
48317;SDS011;34127;47.412;9.730;2023-07-29T03:42:17;10.30;;;5.85;;
48317;SDS011;34127;47.412;9.730;2023-07-29T03:44:43;9.90;;;5.55;;
48317;SDS011;34127;47.412;9.730;2023-07-29T03:47:09;8.00;;;6.07;;
48317;SDS011;34127;47.412;9.730;2023-07-29T03:49:35;10.13;;;6.78;;
48317;SDS011;34127;47.412;9.730;2023-07-29T03:52:02;10.70;;;7.00;;
48317;SDS011;34127;47.412;9.730;2023-07-29T03:54:28;13.40;;;7.25;;
48317;SDS011;34127;47.412;9.730;2023-07-29T03:56:54;13.30;;;7.30;;
48317;SDS011;34127;47.412;9.730;2023-07-29T03:59:20;12.40;;;8.20;;
48317;SDS011;34127;47.412;9.730;2023-07-29T04:01:47;12.07;;;7.50;;
48317;SDS011;34127;47.412;9.730;2023-07-29T04:04:14;12.15;;;7.80;;
48317;SDS011;34127;47.412;9.730;2023-07-29T04:06:40;9.10;;;6.63;;
48317;SDS011;34127;47.412;9.730;2023-07-29T04:09:06;9.60;;;7.13;;
48317;SDS011;34127;47.412;9.730;2023-07-29T04:11:33;8.20;;;6.10;;
48317;SDS011;34127;47.412;9.730;2023-07-29T04:13:59;10.23;;;6.35;;
48317;SDS011;34127;47.412;9.730;2023-07-29T04:16:25;11.00;;;6.75;;
48317;SDS011;34127;47.412;9.730;2023-07-29T04:18:51;8.45;;;6.05;;
48317;SDS011;34127;47.412;9.730;2023-07-29T04:21:17;8.70;;;5.20;;
48317;SDS011;34127;47.412;9.730;2023-07-29T04:23:43;10.32;;;5.80;;
48317;SDS011;34127;47.412;9.730;2023-07-29T04:26:10;9.05;;;5.60;;
48317;SDS011;34127;47.412;9.730;2023-07-29T04:28:36;9.32;;;5.88;;
48317;SDS011;34127;47.412;9.730;2023-07-29T04:31:02;9.23;;;6.93;;
48317;SDS011;34127;47.412;9.730;2023-07-29T04:33:29;11.07;;;6.40;;
48317;SDS011;34127;47.412;9.730;2023-07-29T04:35:56;12.07;;;6.47;;
48317;SDS011;34127;47.412;9.730;2023-07-29T04:38:24;9.23;;;6.07;;
48317;SDS011;34127;47.412;9.730;2023-07-29T04:40:50;9.25;;;6.10;;
48317;SDS011;34127;47.412;9.730;2023-07-29T04:43:16;11.15;;;6.43;;
48317;SDS011;34127;47.412;9.730;2023-07-29T04:45:43;9.13;;;5.50;;
48317;SDS011;34127;47.412;9.730;2023-07-29T04:48:09;8.15;;;5.90;;
48317;SDS011;34127;47.412;9.730;2023-07-29T04:50:35;9.98;;;5.50;;
48317;SDS011;34127;47.412;9.730;2023-07-29T04:53:01;8.70;;;5.72;;
48317;SDS011;34127;47.412;9.730;2023-07-29T04:55:27;10.02;;;5.85;;
48317;SDS011;34127;47.412;9.730;2023-07-29T04:57:54;8.95;;;5.47;;
48317;SDS011;34127;47.412;9.730;2023-07-29T05:00:20;11.63;;;6.03;;
48317;SDS011;34127;47.412;9.730;2023-07-29T05:02:46;9.25;;;5.60;;
48317;SDS011;34127;47.412;9.730;2023-07-29T05:05:12;9.77;;;6.45;;
48317;SDS011;34127;47.412;9.730;2023-07-29T05:07:39;9.68;;;5.97;;
48317;SDS011;34127;47.412;9.730;2023-07-29T05:10:05;7.85;;;5.63;;
48317;SDS011;34127;47.412;9.730;2023-07-29T05:12:31;8.68;;;5.97;;
48317;SDS011;34127;47.412;9.730;2023-07-29T05:14:58;7.75;;;5.10;;
48317;SDS011;34127;47.412;9.730;2023-07-29T05:17:24;8.18;;;5.55;;
48317;SDS011;34127;47.412;9.730;2023-07-29T05:19:50;9.77;;;5.10;;
48317;SDS011;34127;47.412;9.730;2023-07-29T05:22:16;7.68;;;4.78;;
48317;SDS011;34127;47.412;9.730;2023-07-29T05:24:43;9.48;;;5.68;;
48317;SDS011;34127;47.412;9.730;2023-07-29T05:27:09;10.55;;;5.50;;
48317;SDS011;34127;47.412;9.730;2023-07-29T05:29:35;7.40;;;5.40;;
48317;SDS011;34127;47.412;9.730;2023-07-29T05:32:02;7.60;;;4.88;;
48317;SDS011;34127;47.412;9.730;2023-07-29T05:34:29;7.75;;;5.53;;
48317;SDS011;34127;47.412;9.730;2023-07-29T05:36:55;7.32;;;5.20;;
48317;SDS011;34127;47.412;9.730;2023-07-29T05:39:21;10.52;;;5.95;;
48317;SDS011;34127;47.412;9.730;2023-07-29T05:41:49;8.15;;;5.50;;
48317;SDS011;34127;47.412;9.730;2023-07-29T05:44:15;6.93;;;5.20;;
48317;SDS011;34127;47.412;9.730;2023-07-29T05:46:41;6.95;;;4.80;;
48317;SDS011;34127;47.412;9.730;2023-07-29T05:49:08;7.18;;;4.97;;
48317;SDS011;34127;47.412;9.730;2023-07-29T05:51:34;6.65;;;4.57;;
48317;SDS011;34127;47.412;9.730;2023-07-29T05:54:00;7.88;;;4.60;;
48317;SDS011;34127;47.412;9.730;2023-07-29T05:56:26;8.77;;;5.00;;
48317;SDS011;34127;47.412;9.730;2023-07-29T05:58:52;6.32;;;4.07;;
48317;SDS011;34127;47.412;9.730;2023-07-29T06:01:19;10.40;;;4.78;;
48317;SDS011;34127;47.412;9.730;2023-07-29T06:03:46;6.75;;;4.10;;
48317;SDS011;34127;47.412;9.730;2023-07-29T06:06:12;5.25;;;4.13;;
48317;SDS011;34127;47.412;9.730;2023-07-29T06:08:38;5.85;;;4.03;;
48317;SDS011;34127;47.412;9.730;2023-07-29T06:11:05;7.15;;;4.07;;
48317;SDS011;34127;47.412;9.730;2023-07-29T06:13:33;7.53;;;3.90;;
48317;SDS011;34127;47.412;9.730;2023-07-29T06:16:00;7.10;;;3.75;;
48317;SDS011;34127;47.412;9.730;2023-07-29T06:18:26;5.40;;;3.65;;
48317;SDS011;34127;47.412;9.730;2023-07-29T06:20:52;8.57;;;3.78;;
48317;SDS011;34127;47.412;9.730;2023-07-29T06:23:18;5.70;;;3.50;;
48317;SDS011;34127;47.412;9.730;2023-07-29T06:25:44;5.50;;;3.75;;
48317;SDS011;34127;47.412;9.730;2023-07-29T06:28:10;6.60;;;4.40;;
48317;SDS011;34127;47.412;9.730;2023-07-29T06:30:37;5.25;;;3.65;;
48317;SDS011;34127;47.412;9.730;2023-07-29T06:33:03;5.70;;;3.80;;
48317;SDS011;34127;47.412;9.730;2023-07-29T06:35:29;6.32;;;3.78;;
48317;SDS011;34127;47.412;9.730;2023-07-29T06:37:55;7.72;;;3.95;;
48317;SDS011;34127;47.412;9.730;2023-07-29T06:40:21;5.32;;;4.00;;
48317;SDS011;34127;47.412;9.730;2023-07-29T06:42:48;6.63;;;4.40;;
48317;SDS011;34127;47.412;9.730;2023-07-29T06:45:14;7.53;;;4.57;;
48317;SDS011;34127;47.412;9.730;2023-07-29T06:47:41;9.48;;;5.07;;
48317;SDS011;34127;47.412;9.730;2023-07-29T06:50:07;8.93;;;4.95;;
48317;SDS011;34127;47.412;9.730;2023-07-29T06:52:33;7.10;;;4.88;;
48317;SDS011;34127;47.412;9.730;2023-07-29T06:54:59;7.88;;;4.85;;
48317;SDS011;34127;47.412;9.730;2023-07-29T06:57:26;8.98;;;5.30;;
48317;SDS011;34127;47.412;9.730;2023-07-29T06:59:52;7.03;;;4.68;;
48317;SDS011;34127;47.412;9.730;2023-07-29T07:02:18;8.05;;;5.50;;
48317;SDS011;34127;47.412;9.730;2023-07-29T07:04:44;8.60;;;5.28;;
48317;SDS011;34127;47.412;9.730;2023-07-29T07:07:10;7.40;;;5.13;;
48317;SDS011;34127;47.412;9.730;2023-07-29T07:09:36;7.00;;;5.22;;
48317;SDS011;34127;47.412;9.730;2023-07-29T07:12:03;7.60;;;5.05;;
48317;SDS011;34127;47.412;9.730;2023-07-29T07:14:29;6.75;;;4.65;;
48317;SDS011;34127;47.412;9.730;2023-07-29T07:16:55;7.43;;;4.22;;
48317;SDS011;34127;47.412;9.730;2023-07-29T07:19:21;8.43;;;4.18;;
48317;SDS011;34127;47.412;9.730;2023-07-29T07:21:47;6.03;;;4.03;;
48317;SDS011;34127;47.412;9.730;2023-07-29T07:24:13;6.90;;;4.00;;
48317;SDS011;34127;47.412;9.730;2023-07-29T07:26:39;7.47;;;4.20;;
48317;SDS011;34127;47.412;9.730;2023-07-29T07:29:06;5.80;;;3.72;;
48317;SDS011;34127;47.412;9.730;2023-07-29T07:31:35;6.63;;;3.70;;
48317;SDS011;34127;47.412;9.730;2023-07-29T07:34:01;6.97;;;4.20;;
48317;SDS011;34127;47.412;9.730;2023-07-29T07:36:28;7.38;;;3.70;;
48317;SDS011;34127;47.412;9.730;2023-07-29T07:38:55;6.00;;;4.05;;
48317;SDS011;34127;47.412;9.730;2023-07-29T07:41:21;6.03;;;4.25;;
48317;SDS011;34127;47.412;9.730;2023-07-29T07:43:49;6.38;;;4.20;;
48317;SDS011;34127;47.412;9.730;2023-07-29T07:46:15;7.20;;;4.40;;
48317;SDS011;34127;47.412;9.730;2023-07-29T07:48:41;6.97;;;4.60;;
48317;SDS011;34127;47.412;9.730;2023-07-29T07:51:11;7.07;;;4.05;;
48317;SDS011;34127;47.412;9.730;2023-07-29T07:53:37;7.03;;;4.45;;
48317;SDS011;34127;47.412;9.730;2023-07-29T07:56:03;7.30;;;4.60;;
48317;SDS011;34127;47.412;9.730;2023-07-29T07:58:30;10.95;;;5.35;;
48317;SDS011;34127;47.412;9.730;2023-07-29T08:01:05;4.82;;;3.38;;
48317;SDS011;34127;47.412;9.730;2023-07-29T08:03:32;5.75;;;3.70;;
48317;SDS011;34127;47.412;9.730;2023-07-29T08:05:58;5.57;;;3.67;;
48317;SDS011;34127;47.412;9.730;2023-07-29T08:08:25;5.93;;;3.70;;
48317;SDS011;34127;47.412;9.730;2023-07-29T08:10:52;5.72;;;3.45;;
48317;SDS011;34127;47.412;9.730;2023-07-29T08:13:19;5.35;;;3.50;;
48317;SDS011;34127;47.412;9.730;2023-07-29T08:15:46;7.53;;;4.07;;
48317;SDS011;34127;47.412;9.730;2023-07-29T08:18:13;5.07;;;3.33;;
48317;SDS011;34127;47.412;9.730;2023-07-29T08:20:39;5.30;;;3.63;;
48317;SDS011;34127;47.412;9.730;2023-07-29T08:23:05;6.68;;;3.65;;
48317;SDS011;34127;47.412;9.730;2023-07-29T08:25:31;4.63;;;3.40;;
48317;SDS011;34127;47.412;9.730;2023-07-29T08:27:57;5.45;;;3.63;;
48317;SDS011;34127;47.412;9.730;2023-07-29T08:30:24;5.40;;;3.60;;
48317;SDS011;34127;47.412;9.730;2023-07-29T08:32:50;6.47;;;4.00;;
48317;SDS011;34127;47.412;9.730;2023-07-29T08:35:16;6.47;;;3.88;;
48317;SDS011;34127;47.412;9.730;2023-07-29T08:37:42;6.55;;;3.70;;
48317;SDS011;34127;47.412;9.730;2023-07-29T08:40:09;5.75;;;3.78;;
48317;SDS011;34127;47.412;9.730;2023-07-29T08:42:35;5.05;;;3.63;;
48317;SDS011;34127;47.412;9.730;2023-07-29T08:45:06;6.05;;;3.72;;
48317;SDS011;34127;47.412;9.730;2023-07-29T08:47:33;5.55;;;3.90;;
48317;SDS011;34127;47.412;9.730;2023-07-29T08:50:00;5.47;;;3.65;;
48317;SDS011;34127;47.412;9.730;2023-07-29T08:52:27;5.90;;;3.92;;
48317;SDS011;34127;47.412;9.730;2023-07-29T08:54:54;6.07;;;3.90;;
48317;SDS011;34127;47.412;9.730;2023-07-29T08:57:20;5.95;;;3.60;;
48317;SDS011;34127;47.412;9.730;2023-07-29T08:59:46;5.68;;;3.80;;
48317;SDS011;34127;47.412;9.730;2023-07-29T09:02:13;6.05;;;3.55;;
48317;SDS011;34127;47.412;9.730;2023-07-29T09:04:39;5.78;;;3.88;;
48317;SDS011;34127;47.412;9.730;2023-07-29T09:07:05;5.53;;;3.65;;
48317;SDS011;34127;47.412;9.730;2023-07-29T09:09:31;5.50;;;3.80;;
48317;SDS011;34127;47.412;9.730;2023-07-29T09:11:58;7.40;;;4.15;;
48317;SDS011;34127;47.412;9.730;2023-07-29T09:14:24;7.45;;;3.83;;
48317;SDS011;34127;47.412;9.730;2023-07-29T09:16:50;4.97;;;3.53;;
48317;SDS011;34127;47.412;9.730;2023-07-29T09:19:16;7.03;;;3.78;;
48317;SDS011;34127;47.412;9.730;2023-07-29T09:21:42;6.50;;;3.97;;
48317;SDS011;34127;47.412;9.730;2023-07-29T09:24:12;5.07;;;3.63;;
48317;SDS011;34127;47.412;9.730;2023-07-29T09:26:48;6.13;;;3.60;;
48317;SDS011;34127;47.412;9.730;2023-07-29T09:29:14;7.00;;;3.80;;
48317;SDS011;34127;47.412;9.730;2023-07-29T09:31:40;6.22;;;3.85;;
48317;SDS011;34127;47.412;9.730;2023-07-29T09:34:07;6.00;;;4.03;;
48317;SDS011;34127;47.412;9.730;2023-07-29T09:36:33;6.43;;;4.00;;
48317;SDS011;34127;47.412;9.730;2023-07-29T09:39:00;7.00;;;4.13;;
48317;SDS011;34127;47.412;9.730;2023-07-29T09:41:28;6.57;;;4.47;;
48317;SDS011;34127;47.412;9.730;2023-07-29T09:44:01;6.32;;;4.28;;
48317;SDS011;34127;47.412;9.730;2023-07-29T09:46:32;6.78;;;4.60;;
48317;SDS011;34127;47.412;9.730;2023-07-29T09:48:59;8.02;;;4.45;;
48317;SDS011;34127;47.412;9.730;2023-07-29T09:51:25;6.97;;;4.50;;
48317;SDS011;34127;47.412;9.730;2023-07-29T09:53:51;5.97;;;4.43;;
48317;SDS011;34127;47.412;9.730;2023-07-29T09:56:17;6.55;;;3.78;;
48317;SDS011;34127;47.412;9.730;2023-07-29T09:58:44;7.88;;;4.95;;
48317;SDS011;34127;47.412;9.730;2023-07-29T10:01:13;7.85;;;4.30;;
48317;SDS011;34127;47.412;9.730;2023-07-29T10:03:39;8.95;;;4.43;;
48317;SDS011;34127;47.412;9.730;2023-07-29T10:06:06;7.07;;;4.15;;
48317;SDS011;34127;47.412;9.730;2023-07-29T10:08:33;5.85;;;4.15;;
48317;SDS011;34127;47.412;9.730;2023-07-29T10:11:06;5.95;;;4.38;;
48317;SDS011;34127;47.412;9.730;2023-07-29T10:13:33;7.03;;;4.53;;
48317;SDS011;34127;47.412;9.730;2023-07-29T10:15:59;8.00;;;4.88;;
48317;SDS011;34127;47.412;9.730;2023-07-29T10:18:30;5.80;;;4.38;;
48317;SDS011;34127;47.412;9.730;2023-07-29T10:20:57;10.00;;;4.93;;
48317;SDS011;34127;47.412;9.730;2023-07-29T10:23:27;8.32;;;4.78;;
48317;SDS011;34127;47.412;9.730;2023-07-29T10:26:07;6.03;;;4.00;;
48317;SDS011;34127;47.412;9.730;2023-07-29T10:28:36;7.60;;;4.47;;
48317;SDS011;34127;47.412;9.730;2023-07-29T10:31:04;9.63;;;4.22;;
48317;SDS011;34127;47.412;9.730;2023-07-29T10:33:31;5.63;;;3.90;;
48317;SDS011;34127;47.412;9.730;2023-07-29T10:35:58;6.97;;;4.40;;
48317;SDS011;34127;47.412;9.730;2023-07-29T10:38:24;7.88;;;3.80;;
48317;SDS011;34127;47.412;9.730;2023-07-29T10:40:52;8.38;;;3.70;;
48317;SDS011;34127;47.412;9.730;2023-07-29T10:43:33;5.22;;;3.63;;
48317;SDS011;34127;47.412;9.730;2023-07-29T10:58:55;7.90;;;4.68;;
48317;SDS011;34127;47.412;9.730;2023-07-29T11:01:31;6.72;;;4.22;;
48317;SDS011;34127;47.412;9.730;2023-07-29T11:12:32;8.65;;;4.03;;
48317;SDS011;34127;47.412;9.730;2023-07-29T11:17:18;4.68;;;3.50;;
48317;SDS011;34127;47.412;9.730;2023-07-29T11:19:44;5.95;;;4.13;;
48317;SDS011;34127;47.412;9.730;2023-07-29T11:22:10;4.70;;;3.60;;
48317;SDS011;34127;47.412;9.730;2023-07-29T11:24:37;5.55;;;4.10;;
48317;SDS011;34127;47.412;9.730;2023-07-29T11:27:03;5.22;;;3.50;;
48317;SDS011;34127;47.412;9.730;2023-07-29T11:29:30;4.57;;;3.30;;
48317;SDS011;34127;47.412;9.730;2023-07-29T11:31:56;5.65;;;3.53;;
48317;SDS011;34127;47.412;9.730;2023-07-29T11:34:31;5.18;;;3.47;;
48317;SDS011;34127;47.412;9.730;2023-07-29T11:36:58;6.70;;;3.58;;
48317;SDS011;34127;47.412;9.730;2023-07-29T11:39:24;5.75;;;3.80;;
48317;SDS011;34127;47.412;9.730;2023-07-29T11:41:50;6.00;;;3.95;;
48317;SDS011;34127;47.412;9.730;2023-07-29T11:44:17;6.10;;;3.88;;
48317;SDS011;34127;47.412;9.730;2023-07-29T11:46:43;5.95;;;3.78;;
48317;SDS011;34127;47.412;9.730;2023-07-29T11:49:10;5.03;;;3.25;;
48317;SDS011;34127;47.412;9.730;2023-07-29T11:51:36;5.68;;;3.75;;
48317;SDS011;34127;47.412;9.730;2023-07-29T11:54:03;4.85;;;3.53;;
48317;SDS011;34127;47.412;9.730;2023-07-29T11:56:29;6.75;;;4.07;;
48317;SDS011;34127;47.412;9.730;2023-07-29T11:58:56;5.15;;;3.60;;
48317;SDS011;34127;47.412;9.730;2023-07-29T12:01:22;5.20;;;3.72;;
48317;SDS011;34127;47.412;9.730;2023-07-29T12:03:49;6.95;;;4.00;;
48317;SDS011;34127;47.412;9.730;2023-07-29T12:06:16;4.38;;;3.40;;
48317;SDS011;34127;47.412;9.730;2023-07-29T12:08:42;5.00;;;3.95;;
48317;SDS011;34127;47.412;9.730;2023-07-29T12:11:09;9.75;;;3.70;;
48317;SDS011;34127;47.412;9.730;2023-07-29T12:13:38;6.85;;;4.18;;
48317;SDS011;34127;47.412;9.730;2023-07-29T12:16:04;6.85;;;4.07;;
48317;SDS011;34127;47.412;9.730;2023-07-29T12:18:35;7.00;;;4.05;;
48317;SDS011;34127;47.412;9.730;2023-07-29T12:21:02;5.57;;;4.07;;
48317;SDS011;34127;47.412;9.730;2023-07-29T12:23:28;6.05;;;3.90;;
48317;SDS011;34127;47.412;9.730;2023-07-29T12:25:58;7.95;;;5.70;;
48317;SDS011;34127;47.412;9.730;2023-07-29T12:28:28;9.00;;;6.50;;
48317;SDS011;34127;47.412;9.730;2023-07-29T12:30:55;5.85;;;4.43;;
48317;SDS011;34127;47.412;9.730;2023-07-29T12:33:29;7.68;;;5.00;;
48317;SDS011;34127;47.412;9.730;2023-07-29T12:35:55;6.53;;;4.88;;
48317;SDS011;34127;47.412;9.730;2023-07-29T12:38:21;6.30;;;5.00;;
48317;SDS011;34127;47.412;9.730;2023-07-29T12:40:48;7.13;;;4.50;;
48317;SDS011;34127;47.412;9.730;2023-07-29T12:43:14;5.60;;;4.05;;
48317;SDS011;34127;47.412;9.730;2023-07-29T12:45:40;6.20;;;4.57;;
48317;SDS011;34127;47.412;9.730;2023-07-29T12:48:07;5.72;;;4.28;;
48317;SDS011;34127;47.412;9.730;2023-07-29T12:50:33;6.32;;;4.35;;
48317;SDS011;34127;47.412;9.730;2023-07-29T12:53:00;6.20;;;4.47;;
48317;SDS011;34127;47.412;9.730;2023-07-29T12:55:26;6.75;;;4.63;;
48317;SDS011;34127;47.412;9.730;2023-07-29T12:57:52;6.55;;;4.53;;
48317;SDS011;34127;47.412;9.730;2023-07-29T13:00:18;8.55;;;4.57;;
48317;SDS011;34127;47.412;9.730;2023-07-29T13:02:44;8.40;;;4.85;;
48317;SDS011;34127;47.412;9.730;2023-07-29T13:05:11;7.72;;;4.93;;
48317;SDS011;34127;47.412;9.730;2023-07-29T13:07:38;8.68;;;5.15;;
48317;SDS011;34127;47.412;9.730;2023-07-29T13:10:05;8.57;;;5.50;;
48317;SDS011;34127;47.412;9.730;2023-07-29T13:12:31;5.50;;;3.92;;
48317;SDS011;34127;47.412;9.730;2023-07-29T13:14:58;7.40;;;4.90;;
48317;SDS011;34127;47.412;9.730;2023-07-29T13:17:24;9.27;;;5.50;;
48317;SDS011;34127;47.412;9.730;2023-07-29T13:19:50;7.00;;;4.50;;
48317;SDS011;34127;47.412;9.730;2023-07-29T13:22:17;6.93;;;4.82;;
48317;SDS011;34127;47.412;9.730;2023-07-29T13:24:43;9.75;;;5.45;;
48317;SDS011;34127;47.412;9.730;2023-07-29T13:27:09;8.65;;;5.10;;
48317;SDS011;34127;47.412;9.730;2023-07-29T13:29:35;9.07;;;4.95;;
48317;SDS011;34127;47.412;9.730;2023-07-29T13:32:01;7.35;;;4.65;;
48317;SDS011;34127;47.412;9.730;2023-07-29T13:34:27;5.47;;;3.92;;
48317;SDS011;34127;47.412;9.730;2023-07-29T13:36:53;6.38;;;3.80;;
48317;SDS011;34127;47.412;9.730;2023-07-29T13:39:19;8.05;;;4.47;;
48317;SDS011;34127;47.412;9.730;2023-07-29T13:41:46;8.02;;;4.30;;
48317;SDS011;34127;47.412;9.730;2023-07-29T13:44:12;5.63;;;3.95;;
48317;SDS011;34127;47.412;9.730;2023-07-29T13:46:38;5.45;;;4.28;;
48317;SDS011;34127;47.412;9.730;2023-07-29T13:49:04;7.05;;;4.50;;
48317;SDS011;34127;47.412;9.730;2023-07-29T13:51:30;5.97;;;4.40;;
48317;SDS011;34127;47.412;9.730;2023-07-29T13:53:56;5.88;;;3.95;;
48317;SDS011;34127;47.412;9.730;2023-07-29T13:56:23;7.60;;;4.50;;
48317;SDS011;34127;47.412;9.730;2023-07-29T13:58:49;5.85;;;4.20;;
48317;SDS011;34127;47.412;9.730;2023-07-29T14:01:15;5.75;;;3.88;;
48317;SDS011;34127;47.412;9.730;2023-07-29T14:03:42;6.20;;;3.97;;
48317;SDS011;34127;47.412;9.730;2023-07-29T14:06:08;7.30;;;4.28;;
48317;SDS011;34127;47.412;9.730;2023-07-29T14:08:34;6.03;;;4.18;;
48317;SDS011;34127;47.412;9.730;2023-07-29T14:11:01;6.38;;;4.25;;
48317;SDS011;34127;47.412;9.730;2023-07-29T14:13:27;6.70;;;4.45;;
48317;SDS011;34127;47.412;9.730;2023-07-29T14:15:53;5.80;;;3.90;;
48317;SDS011;34127;47.412;9.730;2023-07-29T14:18:19;6.88;;;3.95;;
48317;SDS011;34127;47.412;9.730;2023-07-29T14:20:45;6.32;;;3.78;;
48317;SDS011;34127;47.412;9.730;2023-07-29T14:23:11;7.97;;;3.75;;
48317;SDS011;34127;47.412;9.730;2023-07-29T14:25:38;7.15;;;3.55;;
48317;SDS011;34127;47.412;9.730;2023-07-29T14:28:04;5.80;;;3.58;;
48317;SDS011;34127;47.412;9.730;2023-07-29T14:30:30;5.65;;;3.30;;
48317;SDS011;34127;47.412;9.730;2023-07-29T14:32:56;6.05;;;3.60;;
48317;SDS011;34127;47.412;9.730;2023-07-29T14:35:22;6.63;;;3.03;;
48317;SDS011;34127;47.412;9.730;2023-07-29T14:37:48;5.70;;;2.85;;
48317;SDS011;34127;47.412;9.730;2023-07-29T14:40:15;5.78;;;2.75;;
48317;SDS011;34127;47.412;9.730;2023-07-29T14:42:41;7.30;;;2.90;;
48317;SDS011;34127;47.412;9.730;2023-07-29T14:45:07;6.97;;;3.00;;
48317;SDS011;34127;47.412;9.730;2023-07-29T14:47:33;5.57;;;2.85;;
48317;SDS011;34127;47.412;9.730;2023-07-29T14:50:00;6.93;;;2.97;;
48317;SDS011;34127;47.412;9.730;2023-07-29T14:52:26;6.40;;;3.03;;
48317;SDS011;34127;47.412;9.730;2023-07-29T14:54:52;6.05;;;3.10;;
48317;SDS011;34127;47.412;9.730;2023-07-29T14:57:18;8.93;;;3.40;;
48317;SDS011;34127;47.412;9.730;2023-07-29T14:59:44;7.50;;;3.40;;
48317;SDS011;34127;47.412;9.730;2023-07-29T15:02:10;9.55;;;3.95;;
48317;SDS011;34127;47.412;9.730;2023-07-29T15:04:37;6.13;;;3.20;;
48317;SDS011;34127;47.412;9.730;2023-07-29T15:07:03;7.40;;;3.28;;
48317;SDS011;34127;47.412;9.730;2023-07-29T15:09:29;7.93;;;4.05;;
48317;SDS011;34127;47.412;9.730;2023-07-29T15:11:55;6.40;;;2.95;;
48317;SDS011;34127;47.412;9.730;2023-07-29T15:14:22;4.95;;;3.00;;
48317;SDS011;34127;47.412;9.730;2023-07-29T15:16:48;5.65;;;3.20;;